• Join FlightAware (Why Join?)
  • Login
  • US Flag 
12:04PM EDT


 

Airport Tracker/Info


-or-


 

Live Flight TrackerFlight Track Log ✈ N929DE ✈ 03-Jul-2013 ✈ KALO - KCQM

Flight Track Log - Related Links

Times and Time Zones

All times are in EDT time to prevent confusion due to time zone crossing. See the N929DE flight status page for this flight to view local times or setup timezone preferences in your user account.

Time Position Orientation Groundspeed Altitude Reporting Facility
EDT Latitude Longitude Course Direction KTS MPH feet Rate Location/Type
05:46PM 42.6283 -92.4194 357° North 108 124 3,600  Level Chicago Center
05:47PM 42.6694 -92.4206 359° North 116 133 4,700 900 Climbing Chicago Center
05:48PM 42.7028 -92.4214 359° North 119 137 5,500 780 Climbing Chicago Center
05:49PM 42.7389 -92.4228 358° North 123 142 6,400 720 Climbing Chicago Center
05:50PM 43.0359 -92.4162 357° North  Level FlightAware Approximate
05:50PM 42.7758 -92.4272 355° North 128 147 7,000  Level Chicago Center
05:51PM 43.0837 -92.4200 357° North  Level FlightAware Approximate
05:51PM 42.8158 -92.4297 357° North 135 155 7,500  Level Chicago Center
05:52PM 42.8642 -92.4300 360° North 141 162 8,000 240 Climbing Chicago Center
05:53PM 42.9047 -92.4350 355° North 144 166 8,100  Climbing Chicago Center
05:54PM 42.9483 -92.4367 358° North 149 171 8,100  Level Chicago Center
05:55PM 42.9933 -92.4364 360° North 155 178 8,100  Level Chicago Center
05:56PM 43.0408 -92.4403 357° North 162 186 8,100  Level Minneapolis Center
05:57PM 43.0778 -92.4411 359° North 165 190 8,100  Level Minneapolis Center
05:58PM 43.1403 -92.4478 356° North 163 188 8,100  Level Minneapolis Center
05:59PM 43.1861 -92.4478 360° North 164 189 8,100  Level Minneapolis Center
06:00PM 43.2333 -92.4494 359° North 169 194 8,100  Level Minneapolis Center
06:01PM 43.2881 -92.4508 359° North 173 199 8,100  Level Minneapolis Center
06:02PM 43.3333 -92.4561 355° North 164 189 8,100  Level Minneapolis Center
06:03PM 43.3822 -92.4564 360° North 166 191 8,100  Level Minneapolis Center
06:04PM 43.4278 -92.4572 359° North 164 189 8,100  Level Minneapolis Center
06:05PM 43.4775 -92.4628 355° North 169 194 8,100  Level Minneapolis Center
06:06PM 43.5278 -92.4631 360° North 169 194 8,100  Level Minneapolis Center
06:07PM 43.5661 -92.4644 358° North 168 193 8,100  Level Minneapolis Center
06:09PM 43.6242 -92.4703 356° North 170 196 8,100  Level Minneapolis Center
06:10PM 43.6711 -92.4736 357° North 170 196 8,100  Level Minneapolis Center
06:11PM 43.7217 -92.4719 North 170 196 8,100  Level Minneapolis Center
06:12PM 43.7686 -92.4736 359° North 171 197 8,100  Level Minneapolis Center
06:13PM 43.8197 -92.4778 357° North 171 197 8,100  Level Minneapolis Center
06:14PM 43.8653 -92.4839 354° North 168 193 8,100  Level Minneapolis Center
06:15PM 43.9133 -92.4842 360° North 164 189 8,100  Level Minneapolis Center
06:16PM 43.9622 -92.4839 360° North 167 192 8,100  Level Minneapolis Center
06:17PM 44.0089 -92.4881 356° North 168 193 8,100  Level Minneapolis Center
06:18PM 44.0594 -92.4900 358° North 171 197 8,100  Level Minneapolis Center
06:19PM 44.1111 -92.4933 357° North 174 200 8,100  Level Minneapolis Center
06:20PM 44.1583 -92.4953 358° North 170 196 8,100  Level Minneapolis Center
06:21PM 44.2094 -92.4981 358° North 172 198 8,100  Level Minneapolis Center
06:22PM 44.2567 -92.5006 358° North 171 197 8,100  Level Minneapolis Center
06:23PM 44.3075 -92.5039 357° North 169 194 8,100  Level Minneapolis Center
06:24PM 44.3525 -92.5053 359° North 172 198 8,100  Level Minneapolis Center
06:25PM 44.4003 -92.5067 359° North 172 198 8,100  Level Minneapolis Center
06:26PM 44.4483 -92.5083 359° North 173 199 8,100  Level Minneapolis Center
06:27PM 44.5050 -92.5128 357° North 172 198 8,100  Level Minneapolis Center
06:28PM 44.5519 -92.5167 357° North 170 196 8,100  Level Minneapolis Center
06:29PM 44.6000 -92.5181 359° North 172 198 8,100  Level Minneapolis Center
06:30PM 44.6467 -92.5167 North 170 196 8,100  Level Minneapolis Center
06:31PM 44.6942 -92.5231 355° North 171 197 8,100  Level Minneapolis Center
06:32PM 44.7517 -92.5250 359° North 173 199 8,200  Climbing Minneapolis Center
06:33PM 44.7992 -92.5275 358° North 173 199 8,200  Level Minneapolis Center
06:34PM 44.8464 -92.5297 358° North 171 197 8,200  Level Minneapolis Center
06:36PM 44.8933 -92.5294 360° North 170 196 8,200  Level Minneapolis Center
06:37PM 44.9492 -92.5367 355° North 169 194 8,200  Level Minneapolis Center
06:38PM 45.0058 -92.5383 359° North 170 196 8,200  Level Minneapolis Center
06:39PM 45.0533 -92.5392 359° North 171 197 8,200 -60 Level Minneapolis Center
06:40PM 45.1108 -92.5436 357° North 173 199 8,100 -60 Descending Minneapolis Center
06:41PM 45.1575 -92.5464 358° North 170 196 8,100  Level Minneapolis Center
06:42PM 45.2133 -92.5469 360° North 167 192 8,100  Level Minneapolis Center
06:43PM 45.2606 -92.5506 357° North 169 194 8,100  Level Minneapolis Center
06:44PM 45.3083 -92.5522 359° North 173 199 8,100  Level Minneapolis Center
06:45PM 45.3550 -92.5547 358° North 170 196 8,100  Level Minneapolis Center
06:46PM 45.4028 -92.5578 357° North 172 198 8,100  Level Minneapolis Center
06:47PM 45.4506 -92.5597 358° North 172 198 8,100  Level Minneapolis Center
06:48PM 45.5064 -92.5628 358° North 170 196 8,100  Level Minneapolis Center
06:49PM 45.5542 -92.5658 357° North 171 197 8,100  Level Minneapolis Center
06:50PM 45.6000 -92.5681 358° North 168 193 8,100  Level Minneapolis Center
06:51PM 45.6531 -92.5697 359° North 173 199 8,100  Level Minneapolis Center
06:52PM 45.6947 -92.5714 358° North 169 194 8,100  Level Minneapolis Center
06:53PM 45.7503 -92.5739 358° North 168 193 8,100  Level Minneapolis Center
06:54PM 45.7961 -92.5769 357° North 167 192 8,100  Level Minneapolis Center
06:55PM 45.8428 -92.5786 359° North 167 192 8,100  Level Minneapolis Center
06:57PM 45.8889 -92.5817 357° North 166 191 8,100  Level Minneapolis Center
06:58PM 45.9350 -92.5861 356° North 166 191 8,100  Level Minneapolis Center
06:59PM 45.9808 -92.5889 358° North 166 191 8,100  Level Minneapolis Center
07:00PM 46.0372 -92.5869 North 169 194 8,100  Level Minneapolis Center
07:01PM 46.0831 -92.5925 355° North 166 191 8,100  Level Minneapolis Center
07:02PM 46.1292 -92.5958 357° North 166 191 8,100  Level Minneapolis Center
07:03PM 46.1753 -92.5958 360° North 166 191 8,100  Level Minneapolis Center
07:04PM 46.2222 -92.6003 356° North 164 189 8,100  Level Minneapolis Center
07:05PM 46.2683 -92.6039 357° North 166 191 8,100  Level Minneapolis Center
07:06PM 46.3142 -92.6031 North 165 190 8,100  Level Minneapolis Center
07:07PM 46.3689 -92.6067 357° North 166 191 8,100  Level Minneapolis Center
07:08PM 46.4164 -92.6111 356° North 169 194 8,100  Level Minneapolis Center
07:09PM 46.4625 -92.6125 359° North 168 193 8,100  Level Minneapolis Center
07:10PM 46.5086 -92.6164 357° North 167 192 8,100  Level Minneapolis Center
07:11PM 46.5564 -92.6175 359° North 169 194 8,100  Level Minneapolis Center
07:12PM 46.6128 -92.6225 357° North 170 196 8,100  Level Minneapolis Center
07:13PM 46.6589 -92.6233 359° North 169 194 8,100  Level Minneapolis Center
07:14PM 46.7047 -92.6256 358° North 167 192 8,100  Level Minneapolis Center
07:15PM 46.7497 -92.6292 357° North 165 190 8,100  Level Minneapolis Center
07:16PM 46.7947 -92.6303 359° North 164 189 8,100  Level Minneapolis Center
07:17PM 46.8414 -92.6325 358° North 165 190 8,100  Level Minneapolis Center
07:18PM 46.8964 -92.6372 357° North 165 190 8,100  Level Minneapolis Center
07:19PM 46.9425 -92.6394 358° North 166 191 8,100  Level Minneapolis Center
07:20PM 46.9889 -92.6403 359° North 166 191 8,100  Level Minneapolis Center
07:21PM 47.0361 -92.6444 357° North 168 193 8,100  Level Minneapolis Center
07:22PM 47.0836 -92.6458 359° North 170 196 8,100  Level Minneapolis Center
07:23PM 47.1397 -92.6483 358° North 169 194 8,100  Level Minneapolis Center
07:24PM 47.1850 -92.6528 356° North 168 193 8,100  Level Minneapolis Center
07:26PM 47.2308 -92.6550 358° North 167 192 8,100 -300 Level Minneapolis Center
07:27PM 47.2789 -92.6556 360° North 168 193 7,600 -540 Descending Minneapolis Center
07:28PM 47.3303 -92.6589 357° North 176 203 7,100 -780 Descending Minneapolis Center
07:29PM 47.3947 -92.6642 357° North 186 214 6,100 -900 Descending Minneapolis Center
07:30PM 47.4503 -92.6675 358° North 194 223 5,300 -780 Descending Minneapolis Center
07:32PM 47.5356 -92.6671 North  Level FlightAware Approximate
07:39PM 47.8167 -92.6833 North  Level FlightAware Approximate
07:40PM 47.8221 -92.6905 North  Level Estimated
07:41PM 47.8221 -92.6905 North  Level Estimated
07:42PM 47.8221 -92.6905 North  Level Estimated